sensor_id;sensor_type;location;lat;lon;timestamp;pressure;altitude;pressure_sealevel;temperature;humidity
24013;BME280;12220;50.194;18.948;2024-02-21T00:01:57;102598.13;;;6.90;80.02
24013;BME280;12220;50.194;18.948;2024-02-21T00:03:58;102592.69;;;6.90;80.02
24013;BME280;12220;50.194;18.948;2024-02-21T00:06:09;102586.33;;;6.90;80.04
24013;BME280;12220;50.194;18.948;2024-02-21T00:08:10;102581.80;;;6.90;80.06
24013;BME280;12220;50.194;18.948;2024-02-21T00:10:12;102572.67;;;6.91;80.00
24013;BME280;12220;50.194;18.948;2024-02-21T00:12:13;102565.45;;;6.90;79.98
24013;BME280;12220;50.194;18.948;2024-02-21T00:14:24;102576.35;;;6.90;79.89
24013;BME280;12220;50.194;18.948;2024-02-21T00:16:25;102595.47;;;6.87;79.41
24013;BME280;12220;50.194;18.948;2024-02-21T00:18:27;102597.34;;;6.85;79.60
24013;BME280;12220;50.194;18.948;2024-02-21T00:20:29;102596.51;;;6.83;79.72
24013;BME280;12220;50.194;18.948;2024-02-21T00:22:39;102592.90;;;6.81;79.82
24013;BME280;12220;50.194;18.948;2024-02-21T00:24:41;102597.51;;;6.79;79.82
24013;BME280;12220;50.194;18.948;2024-02-21T00:26:42;102592.09;;;6.77;79.80
24013;BME280;12220;50.194;18.948;2024-02-21T00:28:47;102593.91;;;6.77;79.85
24013;BME280;12220;50.194;18.948;2024-02-21T00:30:54;102589.41;;;6.76;79.90
24013;BME280;12220;50.194;18.948;2024-02-21T00:32:55;102583.05;;;6.75;79.97
24013;BME280;12220;50.194;18.948;2024-02-21T00:34:57;102573.07;;;6.76;80.03
24013;BME280;12220;50.194;18.948;2024-02-21T00:36:58;102578.48;;;6.77;80.01
24013;BME280;12220;50.194;18.948;2024-02-21T00:39:09;102570.35;;;6.76;79.95
24013;BME280;12220;50.194;18.948;2024-02-21T00:41:10;102574.00;;;6.75;79.98
24013;BME280;12220;50.194;18.948;2024-02-21T00:43:12;102569.44;;;6.75;80.02
24013;BME280;12220;50.194;18.948;2024-02-21T00:45:13;102572.12;;;6.77;80.06
24013;BME280;12220;50.194;18.948;2024-02-21T00:47:24;102571.19;;;6.78;80.02
24013;BME280;12220;50.194;18.948;2024-02-21T00:49:25;102570.27;;;6.79;80.04
24013;BME280;12220;50.194;18.948;2024-02-21T00:51:27;102558.42;;;6.80;80.03
24013;BME280;12220;50.194;18.948;2024-02-21T00:53:28;102560.23;;;6.81;80.02
24013;BME280;12220;50.194;18.948;2024-02-21T00:55:39;102563.85;;;6.82;80.01
24013;BME280;12220;50.194;18.948;2024-02-21T00:57:41;102555.70;;;6.80;80.02
24013;BME280;12220;50.194;18.948;2024-02-21T00:59:42;102555.69;;;6.82;79.99
24013;BME280;12220;50.194;18.948;2024-02-21T01:01:43;102555.69;;;6.82;79.99
24013;BME280;12220;50.194;18.948;2024-02-21T01:03:54;102558.38;;;6.83;79.96
24013;BME280;12220;50.194;18.948;2024-02-21T01:05:55;102552.10;;;6.79;79.95
24013;BME280;12220;50.194;18.948;2024-02-21T01:07:57;102558.42;;;6.80;80.00
24013;BME280;12220;50.194;18.948;2024-02-21T01:09:58;102552.13;;;6.78;79.91
24013;BME280;12220;50.194;18.948;2024-02-21T01:12:09;102557.51;;;6.81;79.99
24013;BME280;12220;50.194;18.948;2024-02-21T01:14:10;102552.98;;;6.80;80.02
24013;BME280;12220;50.194;18.948;2024-02-21T01:16:12;102545.72;;;6.80;80.00
24013;BME280;12220;50.194;18.948;2024-02-21T01:18:14;102549.34;;;6.81;79.97
24013;BME280;12220;50.194;18.948;2024-02-21T01:20:24;102551.13;;;6.82;80.01
24013;BME280;12220;50.194;18.948;2024-02-21T01:22:25;102544.80;;;6.82;80.04
24013;BME280;12220;50.194;18.948;2024-02-21T01:24:27;102540.25;;;6.82;80.00
24013;BME280;12220;50.194;18.948;2024-02-21T01:26:33;102544.80;;;6.82;79.94
24013;BME280;12220;50.194;18.948;2024-02-21T01:28:40;102542.09;;;6.80;79.96
24013;BME280;12220;50.194;18.948;2024-02-21T01:30:42;102534.88;;;6.79;79.88
24013;BME280;12220;50.194;18.948;2024-02-21T01:32:43;102537.59;;;6.79;79.98
24013;BME280;12220;50.194;18.948;2024-02-21T01:34:44;102544.81;;;6.80;79.98
24013;BME280;12220;50.194;18.948;2024-02-21T01:36:54;102544.81;;;6.80;80.02
24013;BME280;12220;50.194;18.948;2024-02-21T01:38:55;102543.88;;;6.81;80.01
24013;BME280;12220;50.194;18.948;2024-02-21T01:40:57;102543.88;;;6.81;80.01
24013;BME280;12220;50.194;18.948;2024-02-21T01:42:58;102546.55;;;6.83;80.00
24013;BME280;12220;50.194;18.948;2024-02-21T01:45:10;102535.63;;;6.84;80.02
24013;BME280;12220;50.194;18.948;2024-02-21T01:47:12;102530.27;;;6.81;79.79
24013;BME280;12220;50.194;18.948;2024-02-21T01:49:14;102532.19;;;6.77;79.69
24013;BME280;12220;50.194;18.948;2024-02-21T01:51:16;102524.15;;;6.73;79.65
24013;BME280;12220;50.194;18.948;2024-02-21T01:53:30;102526.08;;;6.68;79.70
24013;BME280;12220;50.194;18.948;2024-02-21T01:55:34;102519.85;;;6.62;79.79
24013;BME280;12220;50.194;18.948;2024-02-21T01:57:36;102522.63;;;6.59;79.64
24013;BME280;12220;50.194;18.948;2024-02-21T01:59:38;102281.55;;;5.05;79.74
24013;BME280;12220;50.194;18.948;2024-02-21T02:01:41;102523.67;;;6.55;79.96
24013;BME280;12220;50.194;18.948;2024-02-21T02:03:45;102524.65;;;6.53;80.03
24013;BME280;12220;50.194;18.948;2024-02-21T02:05:48;102517.43;;;6.50;80.08
24013;BME280;12220;50.194;18.948;2024-02-21T02:07:50;102525.65;;;6.49;80.07
24013;BME280;12220;50.194;18.948;2024-02-21T02:09:55;102522.96;;;6.47;80.16
24013;BME280;12220;50.194;18.948;2024-02-21T02:11:57;102527.52;;;6.47;80.22
24013;BME280;12220;50.194;18.948;2024-02-21T02:13:59;102524.80;;;6.45;80.14
24013;BME280;12220;50.194;18.948;2024-02-21T02:16:01;102522.12;;;6.43;80.11
24013;BME280;12220;50.194;18.948;2024-02-21T02:18:11;102514.91;;;6.42;80.26
24013;BME280;12220;50.194;18.948;2024-02-21T02:20:13;102514.91;;;6.42;80.34
24013;BME280;12220;50.194;18.948;2024-02-21T02:22:21;102520.36;;;6.42;80.29
24013;BME280;12220;50.194;18.948;2024-02-21T02:24:24;102510.42;;;6.40;80.20
24013;BME280;12220;50.194;18.948;2024-02-21T02:26:28;102511.31;;;6.40;80.29
24013;BME280;12220;50.194;18.948;2024-02-21T02:28:30;102511.35;;;6.39;80.31
24013;BME280;12220;50.194;18.948;2024-02-21T02:30:35;102515.87;;;6.40;80.27
24013;BME280;12220;50.194;18.948;2024-02-21T02:32:39;102502.30;;;6.38;80.34
24013;BME280;12220;50.194;18.948;2024-02-21T02:34:40;102500.46;;;6.39;80.42
24013;BME280;12220;50.194;18.948;2024-02-21T02:36:42;102506.79;;;6.41;80.42
24013;BME280;12220;50.194;18.948;2024-02-21T02:38:43;102501.34;;;6.41;80.39
24013;BME280;12220;50.194;18.948;2024-02-21T02:40:44;102246.36;;;5.00;80.24
24013;BME280;12220;50.194;18.948;2024-02-21T02:42:55;102495.79;;;6.45;80.45
24013;BME280;12220;50.194;18.948;2024-02-21T02:44:56;102488.52;;;6.46;80.48
24013;BME280;12220;50.194;18.948;2024-02-21T02:46:58;102487.57;;;6.47;80.46
24013;BME280;12220;50.194;18.948;2024-02-21T02:48:59;102492.95;;;6.50;80.46
24013;BME280;12220;50.194;18.948;2024-02-21T02:51:10;102484.74;;;6.52;80.49
24013;BME280;12220;50.194;18.948;2024-02-21T02:53:12;102489.26;;;6.53;80.46
24013;BME280;12220;50.194;18.948;2024-02-21T02:55:13;102491.02;;;6.55;80.42
24013;BME280;12220;50.194;18.948;2024-02-21T02:57:15;102486.48;;;6.54;80.31
24013;BME280;12220;50.194;18.948;2024-02-21T02:59:25;102482.02;;;6.52;80.14
24013;BME280;12220;50.194;18.948;2024-02-21T03:01:26;102482.18;;;6.45;80.10
24013;BME280;12220;50.194;18.948;2024-02-21T03:03:28;102481.34;;;6.42;80.15
24013;BME280;12220;50.194;18.948;2024-02-21T03:05:30;102493.27;;;6.38;80.17
24013;BME280;12220;50.194;18.948;2024-02-21T03:07:40;102488.78;;;6.35;80.31
24013;BME280;12220;50.194;18.948;2024-02-21T03:09:42;102487.02;;;6.33;80.42
24013;BME280;12220;50.194;18.948;2024-02-21T03:11:46;102487.94;;;6.32;80.46
24013;BME280;12220;50.194;18.948;2024-02-21T03:13:48;102482.55;;;6.30;80.45
24013;BME280;12220;50.194;18.948;2024-02-21T03:15:55;102481.73;;;6.26;80.49
24013;BME280;12220;50.194;18.948;2024-02-21T03:17:56;102482.69;;;6.24;80.46
24013;BME280;12220;50.194;18.948;2024-02-21T03:19:58;102485.45;;;6.22;80.54
24013;BME280;12220;50.194;18.948;2024-02-21T03:22:01;102489.10;;;6.21;80.62
24013;BME280;12220;50.194;18.948;2024-02-21T03:24:10;102477.33;;;6.21;80.69
24013;BME280;12220;50.194;18.948;2024-02-21T03:26:12;102471.85;;;6.22;80.80
24013;BME280;12220;50.194;18.948;2024-02-21T03:28:13;102474.50;;;6.25;80.92
24013;BME280;12220;50.194;18.948;2024-02-21T03:30:14;102465.33;;;6.30;81.02
24013;BME280;12220;50.194;18.948;2024-02-21T03:32:25;102461.61;;;6.34;81.07
24013;BME280;12220;50.194;18.948;2024-02-21T03:34:29;102462.41;;;6.37;81.02
24013;BME280;12220;50.194;18.948;2024-02-21T03:36:30;102463.24;;;6.41;80.93
24013;BME280;12220;50.194;18.948;2024-02-21T03:38:31;102466.81;;;6.43;80.81
24013;BME280;12220;50.194;18.948;2024-02-21T03:40:40;102453.20;;;6.43;80.76
24013;BME280;12220;50.194;18.948;2024-02-21T03:42:42;102457.72;;;6.44;80.76
24013;BME280;12220;50.194;18.948;2024-02-21T03:44:43;102460.45;;;6.44;80.80
24013;BME280;12220;50.194;18.948;2024-02-21T03:46:44;102462.20;;;6.47;80.86
24013;BME280;12220;50.194;18.948;2024-02-21T03:48:55;102470.24;;;6.51;80.91
24013;BME280;12220;50.194;18.948;2024-02-21T03:50:57;102475.60;;;6.54;80.91
24013;BME280;12220;50.194;18.948;2024-02-21T03:52:58;102469.23;;;6.55;80.76
24013;BME280;12220;50.194;18.948;2024-02-21T03:54:59;102470.08;;;6.57;80.73
24013;BME280;12220;50.194;18.948;2024-02-21T03:57:10;102471.88;;;6.58;80.77
24013;BME280;12220;50.194;18.948;2024-02-21T03:59:12;102462.76;;;6.59;80.73
24013;BME280;12220;50.194;18.948;2024-02-21T04:01:15;102459.98;;;6.61;80.60
24013;BME280;12220;50.194;18.948;2024-02-21T04:03:16;102460.03;;;6.59;80.54
24013;BME280;12220;50.194;18.948;2024-02-21T04:05:25;102455.54;;;6.58;80.60
24013;BME280;12220;50.194;18.948;2024-02-21T04:07:26;102463.71;;;6.58;80.69
24013;BME280;12220;50.194;18.948;2024-02-21T04:09:28;102466.39;;;6.60;80.64
24013;BME280;12220;50.194;18.948;2024-02-21T04:11:29;102461.88;;;6.59;80.47
24013;BME280;12220;50.194;18.948;2024-02-21T04:13:40;102466.43;;;6.58;80.45
24013;BME280;12220;50.194;18.948;2024-02-21T04:15:42;102469.20;;;6.57;80.41
24013;BME280;12220;50.194;18.948;2024-02-21T04:17:43;102454.75;;;6.53;80.44
24013;BME280;12220;50.194;18.948;2024-02-21T04:19:45;102453.88;;;6.53;80.46
24013;BME280;12220;50.194;18.948;2024-02-21T04:21:55;102457.48;;;6.53;80.57
24013;BME280;12220;50.194;18.948;2024-02-21T04:23:57;102457.48;;;6.53;80.63
24013;BME280;12220;50.194;18.948;2024-02-21T04:25:58;102442.02;;;6.54;80.64
24013;BME280;12220;50.194;18.948;2024-02-21T04:28:00;102448.39;;;6.54;80.60
24013;BME280;12220;50.194;18.948;2024-02-21T04:30:11;102456.59;;;6.53;80.42
24013;BME280;12220;50.194;18.948;2024-02-21T04:32:12;102450.32;;;6.49;80.33
24013;BME280;12220;50.194;18.948;2024-02-21T04:34:13;102453.09;;;6.48;80.39
24013;BME280;12220;50.194;18.948;2024-02-21T04:36:15;102457.64;;;6.47;80.42
24013;BME280;12220;50.194;18.948;2024-02-21T04:38:26;102457.64;;;6.47;80.47
24013;BME280;12220;50.194;18.948;2024-02-21T04:40:27;102454.09;;;6.43;80.35
24013;BME280;12220;50.194;18.948;2024-02-21T04:42:29;102458.69;;;6.41;80.29
24013;BME280;12220;50.194;18.948;2024-02-21T04:44:30;102461.48;;;6.38;80.32
24013;BME280;12220;50.194;18.948;2024-02-21T04:46:43;102453.36;;;6.37;80.41
24013;BME280;12220;50.194;18.948;2024-02-21T04:48:44;102449.72;;;6.36;80.61
24013;BME280;12220;50.194;18.948;2024-02-21T04:50:45;102453.34;;;6.38;80.70
24013;BME280;12220;50.194;18.948;2024-02-21T04:52:46;102454.16;;;6.40;80.74
24013;BME280;12220;50.194;18.948;2024-02-21T04:54:55;102445.05;;;6.43;80.78
24013;BME280;12220;50.194;18.948;2024-02-21T04:56:57;102442.27;;;6.44;80.77
24013;BME280;12220;50.194;18.948;2024-02-21T04:58:58;102438.67;;;6.44;80.65
24013;BME280;12220;50.194;18.948;2024-02-21T05:00:59;102434.16;;;6.43;80.57
24013;BME280;12220;50.194;18.948;2024-02-21T05:03:10;102436.88;;;6.43;80.51
24013;BME280;12220;50.194;18.948;2024-02-21T05:05:12;102431.47;;;6.41;80.55
24013;BME280;12220;50.194;18.948;2024-02-21T05:07:17;102418.80;;;6.40;80.53
24013;BME280;12220;50.194;18.948;2024-02-21T05:09:20;102418.80;;;6.40;80.65
24013;BME280;12220;50.194;18.948;2024-02-21T05:11:25;102412.46;;;6.40;80.70
24013;BME280;12220;50.194;18.948;2024-02-21T05:13:27;102416.08;;;6.40;80.72
24013;BME280;12220;50.194;18.948;2024-02-21T05:15:28;102415.10;;;6.43;80.71
24013;BME280;12220;50.194;18.948;2024-02-21T05:17:29;102411.46;;;6.44;80.74
24013;BME280;12220;50.194;18.948;2024-02-21T05:19:40;102419.53;;;6.47;80.77
24013;BME280;12220;50.194;18.948;2024-02-21T05:21:42;102418.53;;;6.51;80.71
24013;BME280;12220;50.194;18.948;2024-02-21T05:23:43;102422.98;;;6.54;80.74
24013;BME280;12220;50.194;18.948;2024-02-21T05:25:47;102418.41;;;6.56;80.68
24013;BME280;12220;50.194;18.948;2024-02-21T05:27:55;102415.64;;;6.57;80.62
24013;BME280;12220;50.194;18.948;2024-02-21T05:30:05;102407.47;;;6.57;80.47
24013;BME280;12220;50.194;18.948;2024-02-21T05:32:07;102410.24;;;6.56;80.42
24013;BME280;12220;50.194;18.948;2024-02-21T05:34:09;102409.36;;;6.55;80.36
24013;BME280;12220;50.194;18.948;2024-02-21T05:36:13;102406.63;;;6.55;80.36
24013;BME280;12220;50.194;18.948;2024-02-21T05:38:15;102413.88;;;6.55;80.37
24013;BME280;12220;50.194;18.948;2024-02-21T05:40:16;102418.41;;;6.56;80.32
24013;BME280;12220;50.194;18.948;2024-02-21T05:42:17;102165.55;;;5.12;80.14
24013;BME280;12220;50.194;18.948;2024-02-21T05:44:27;102412.07;;;6.55;80.27
24013;BME280;12220;50.194;18.948;2024-02-21T05:46:28;102416.56;;;6.56;80.29
24013;BME280;12220;50.194;18.948;2024-02-21T05:48:32;102408.44;;;6.55;80.23
24013;BME280;12220;50.194;18.948;2024-02-21T05:50:34;102414.80;;;6.54;80.09
24013;BME280;12220;50.194;18.948;2024-02-21T05:52:42;102411.29;;;6.50;80.12
24013;BME280;12220;50.194;18.948;2024-02-21T05:54:43;102408.57;;;6.50;80.11
24013;BME280;12220;50.194;18.948;2024-02-21T05:56:45;102420.38;;;6.49;80.11
24013;BME280;12220;50.194;18.948;2024-02-21T05:58:48;102407.69;;;6.50;80.17
24013;BME280;12220;50.194;18.948;2024-02-21T06:00:57;102414.05;;;6.49;80.10
24013;BME280;12220;50.194;18.948;2024-02-21T06:02:59;102411.33;;;6.49;80.13
24013;BME280;12220;50.194;18.948;2024-02-21T06:05:00;102415.93;;;6.47;80.15
24013;BME280;12220;50.194;18.948;2024-02-21T06:07:02;102309.62;;;5.82;80.07
24013;BME280;12220;50.194;18.948;2024-02-21T06:09:12;102415.93;;;6.47;80.15
24013;BME280;12220;50.194;18.948;2024-02-21T06:11:13;102411.50;;;6.42;80.20
24013;BME280;12220;50.194;18.948;2024-02-21T06:13:16;102171.27;;;4.99;79.96
24013;BME280;12220;50.194;18.948;2024-02-21T06:15:17;102407.12;;;6.37;80.20
24013;BME280;12220;50.194;18.948;2024-02-21T06:17:27;102405.36;;;6.34;80.23
24013;BME280;12220;50.194;18.948;2024-02-21T06:19:29;102410.83;;;6.33;80.38
24013;BME280;12220;50.194;18.948;2024-02-21T06:21:30;102404.52;;;6.32;80.51
24013;BME280;12220;50.194;18.948;2024-02-21T06:23:31;102410.83;;;6.33;80.55
24013;BME280;12220;50.194;18.948;2024-02-21T06:25:42;102407.27;;;6.31;80.58
24013;BME280;12220;50.194;18.948;2024-02-21T06:27:44;102414.56;;;6.28;80.68
24013;BME280;12220;50.194;18.948;2024-02-21T06:29:45;102412.72;;;6.29;80.81
24013;BME280;12220;50.194;18.948;2024-02-21T06:31:46;102413.69;;;6.28;80.99
24013;BME280;12220;50.194;18.948;2024-02-21T06:33:57;102414.56;;;6.28;80.96
24013;BME280;12220;50.194;18.948;2024-02-21T06:35:59;102412.80;;;6.26;81.02
24013;BME280;12220;50.194;18.948;2024-02-21T06:38:00;102409.16;;;6.27;81.09
24013;BME280;12220;50.194;18.948;2024-02-21T06:40:01;102412.77;;;6.27;81.10
24013;BME280;12220;50.194;18.948;2024-02-21T06:42:12;102405.52;;;6.28;81.17
24013;BME280;12220;50.194;18.948;2024-02-21T06:44:14;102409.12;;;6.28;81.21
24013;BME280;12220;50.194;18.948;2024-02-21T06:46:25;102402.76;;;6.30;81.23
24013;BME280;12220;50.194;18.948;2024-02-21T06:48:26;102407.27;;;6.31;81.33
24013;BME280;12220;50.194;18.948;2024-02-21T06:50:27;102400.04;;;6.30;81.33
24013;BME280;12220;50.194;18.948;2024-02-21T06:52:29;102408.19;;;6.30;81.32
24013;BME280;12220;50.194;18.948;2024-02-21T06:54:31;102400.04;;;6.30;81.40
24013;BME280;12220;50.194;18.948;2024-02-21T06:56:33;102406.36;;;6.30;81.40
24013;BME280;12220;50.194;18.948;2024-02-21T06:58:42;102409.03;;;6.32;81.41
24013;BME280;12220;50.194;18.948;2024-02-21T07:00:44;102408.16;;;6.31;81.57
24013;BME280;12220;50.194;18.948;2024-02-21T07:02:45;102408.19;;;6.30;81.54
24013;BME280;12220;50.194;18.948;2024-02-21T07:04:47;102411.76;;;6.32;81.58
24013;BME280;12220;50.194;18.948;2024-02-21T07:06:57;102412.63;;;6.34;81.62
24013;BME280;12220;50.194;18.948;2024-02-21T07:08:59;102418.91;;;6.36;81.68
24013;BME280;12220;50.194;18.948;2024-02-21T07:11:00;102410.67;;;6.39;81.65
24013;BME280;12220;50.194;18.948;2024-02-21T07:13:01;102413.30;;;6.42;81.66
24013;BME280;12220;50.194;18.948;2024-02-21T07:15:12;102414.13;;;6.45;81.62
24013;BME280;12220;50.194;18.948;2024-02-21T07:17:14;102417.70;;;6.48;81.64
24013;BME280;12220;50.194;18.948;2024-02-21T07:19:15;102412.22;;;6.49;81.64
24013;BME280;12220;50.194;18.948;2024-02-21T07:21:17;102411.20;;;6.53;81.67
24013;BME280;12220;50.194;18.948;2024-02-21T07:23:27;102406.63;;;6.55;81.62
24013;BME280;12220;50.194;18.948;2024-02-21T07:25:29;102405.63;;;6.58;81.60
24013;BME280;12220;50.194;18.948;2024-02-21T07:27:30;102401.94;;;6.60;81.57
24013;BME280;12220;50.194;18.948;2024-02-21T07:29:33;102403.69;;;6.63;81.52
24013;BME280;12220;50.194;18.948;2024-02-21T07:31:43;102400.05;;;6.64;81.48
24013;BME280;12220;50.194;18.948;2024-02-21T07:33:45;102399.13;;;6.63;81.41
24013;BME280;12220;50.194;18.948;2024-02-21T07:35:46;102391.84;;;6.66;81.38
24013;BME280;12220;50.194;18.948;2024-02-21T07:37:47;102392.67;;;6.68;81.42
24013;BME280;12220;50.194;18.948;2024-02-21T07:39:57;102389.02;;;6.69;81.47
24013;BME280;12220;50.194;18.948;2024-02-21T07:41:59;102387.18;;;6.69;81.41
24013;BME280;12220;50.194;18.948;2024-02-21T07:44:01;102381.73;;;6.69;81.34
24013;BME280;12220;50.194;18.948;2024-02-21T07:46:04;102377.17;;;6.70;81.36
24013;BME280;12220;50.194;18.948;2024-02-21T07:48:12;102376.24;;;6.71;81.40
24013;BME280;12220;50.194;18.948;2024-02-21T07:50:14;102372.64;;;6.70;81.47
24013;BME280;12220;50.194;18.948;2024-02-21T07:52:15;102378.05;;;6.72;81.24
24013;BME280;12220;50.194;18.948;2024-02-21T07:54:17;102378.93;;;6.72;81.38
24013;BME280;12220;50.194;18.948;2024-02-21T07:56:28;102378.89;;;6.74;81.34
24013;BME280;12220;50.194;18.948;2024-02-21T07:58:30;102371.67;;;6.73;81.37
24013;BME280;12220;50.194;18.948;2024-02-21T08:00:31;102383.36;;;6.76;81.43
24013;BME280;12220;50.194;18.948;2024-02-21T08:02:32;102371.55;;;6.77;81.46
24013;BME280;12220;50.194;18.948;2024-02-21T08:04:43;102363.42;;;6.76;81.67
24013;BME280;12220;50.194;18.948;2024-02-21T08:06:44;102369.80;;;6.75;81.66
24013;BME280;12220;50.194;18.948;2024-02-21T08:08:46;102367.02;;;6.76;81.75
24013;BME280;12220;50.194;18.948;2024-02-21T08:10:50;102354.25;;;6.78;81.82
24013;BME280;12220;50.194;18.948;2024-02-21T08:12:58;102355.91;;;6.84;81.97
24013;BME280;12220;50.194;18.948;2024-02-21T08:14:59;102352.16;;;6.88;82.08
24013;BME280;12220;50.194;18.948;2024-02-21T08:17:00;102347.45;;;6.95;82.08
24013;BME280;12220;50.194;18.948;2024-02-21T08:19:02;102355.38;;;7.03;82.18
24013;BME280;12220;50.194;18.948;2024-02-21T08:21:13;102351.53;;;7.10;82.17
24013;BME280;12220;50.194;18.948;2024-02-21T08:23:18;102352.21;;;7.18;82.18
24013;BME280;12220;50.194;18.948;2024-02-21T08:25:19;102341.06;;;7.26;82.23
24013;BME280;12220;50.194;18.948;2024-02-21T08:27:21;102343.64;;;7.30;82.20
24013;BME280;12220;50.194;18.948;2024-02-21T08:29:28;102337.12;;;7.36;82.11
24013;BME280;12220;50.194;18.948;2024-02-21T08:31:29;102338.77;;;7.42;82.06
24013;BME280;12220;50.194;18.948;2024-02-21T08:33:33;102337.68;;;7.47;82.00
24013;BME280;12220;50.194;18.948;2024-02-21T08:35:34;102341.03;;;7.56;81.94
24013;BME280;12220;50.194;18.948;2024-02-21T08:37:43;102340.91;;;7.60;81.80
24013;BME280;12220;50.194;18.948;2024-02-21T08:39:44;102342.63;;;7.63;81.42
24013;BME280;12220;50.194;18.948;2024-02-21T08:41:46;102341.59;;;7.67;81.24
24013;BME280;12220;50.194;18.948;2024-02-21T08:43:47;102343.38;;;7.68;80.74
24013;BME280;12220;50.194;18.948;2024-02-21T08:45:58;102332.53;;;7.66;80.35
24013;BME280;12220;50.194;18.948;2024-02-21T08:47:59;102335.25;;;7.66;80.39
24013;BME280;12220;50.194;18.948;2024-02-21T08:50:04;102337.93;;;7.68;80.36
24013;BME280;12220;50.194;18.948;2024-02-21T08:52:06;102327.86;;;7.70;80.34
24013;BME280;12220;50.194;18.948;2024-02-21T08:54:13;102322.34;;;7.72;80.15
24013;BME280;12220;50.194;18.948;2024-02-21T08:56:14;102321.41;;;7.73;80.12
24013;BME280;12220;50.194;18.948;2024-02-21T08:58:16;102314.10;;;7.73;80.04
24013;BME280;12220;50.194;18.948;2024-02-21T09:00:18;102316.77;;;7.76;80.13
24013;BME280;12220;50.194;18.948;2024-02-21T09:02:28;102318.34;;;7.83;80.20
24013;BME280;12220;50.194;18.948;2024-02-21T09:04:29;102310.11;;;7.85;80.25
24013;BME280;12220;50.194;18.948;2024-02-21T09:06:31;102319.02;;;7.90;79.99
24013;BME280;12220;50.194;18.948;2024-02-21T09:08:37;102309.80;;;7.94;80.00
24013;BME280;12220;50.194;18.948;2024-02-21T09:10:43;102299.63;;;7.99;80.04
24013;BME280;12220;50.194;18.948;2024-02-21T09:12:44;102296.73;;;8.04;80.01
24013;BME280;12220;50.194;18.948;2024-02-21T09:14:45;102308.25;;;8.12;80.08
24013;BME280;12220;50.194;18.948;2024-02-21T09:16:51;102294.30;;;8.22;79.96
24013;BME280;12220;50.194;18.948;2024-02-21T09:18:58;102293.20;;;8.27;79.77
24013;BME280;12220;50.194;18.948;2024-02-21T09:20:59;102303.89;;;8.33;79.77
24013;BME280;12220;50.194;18.948;2024-02-21T09:23:03;102300.94;;;8.40;79.63
24013;BME280;12220;50.194;18.948;2024-02-21T09:25:05;102300.80;;;8.44;79.56
24013;BME280;12220;50.194;18.948;2024-02-21T09:27:13;102303.33;;;8.50;79.40
24013;BME280;12220;50.194;18.948;2024-02-21T09:29:14;102304.91;;;8.56;78.82
24013;BME280;12220;50.194;18.948;2024-02-21T09:31:17;102305.70;;;8.60;78.66
24013;BME280;12220;50.194;18.948;2024-02-21T09:33:19;102309.08;;;8.66;78.70
24013;BME280;12220;50.194;18.948;2024-02-21T09:35:28;102300.69;;;8.72;78.65
24013;BME280;12220;50.194;18.948;2024-02-21T09:37:29;102304.17;;;8.76;78.12
24013;BME280;12220;50.194;18.948;2024-02-21T09:39:31;102317.77;;;8.78;76.68
24013;BME280;12220;50.194;18.948;2024-02-21T09:41:35;102317.66;;;8.81;76.52
24013;BME280;12220;50.194;18.948;2024-02-21T09:43:43;102311.99;;;8.87;76.54
24013;BME280;12220;50.194;18.948;2024-02-21T09:45:46;102307.28;;;8.90;76.53
24013;BME280;12220;50.194;18.948;2024-02-21T09:50:04;102311.51;;;8.99;76.12
24013;BME280;12220;50.194;18.948;2024-02-21T09:52:07;102312.23;;;9.04;76.22
24013;BME280;12220;50.194;18.948;2024-02-21T09:54:19;102319.34;;;9.08;75.85
24013;BME280;12220;50.194;18.948;2024-02-21T09:56:21;102307.21;;;9.16;76.01
24013;BME280;12220;50.194;18.948;2024-02-21T09:58:23;102310.67;;;9.21;75.83
24013;BME280;12220;50.194;18.948;2024-02-21T10:00:28;102310.49;;;9.25;75.24
24013;BME280;12220;50.194;18.948;2024-02-21T10:02:34;102303.22;;;9.24;74.33
24013;BME280;12220;50.194;18.948;2024-02-21T10:04:36;102303.16;;;9.26;74.13
24013;BME280;12220;50.194;18.948;2024-02-21T10:06:37;102307.50;;;9.32;74.46
24013;BME280;12220;50.194;18.948;2024-02-21T10:08:39;102292.89;;;9.33;73.53
24013;BME280;12220;50.194;18.948;2024-02-21T10:10:49;102292.83;;;9.34;73.14
24013;BME280;12220;50.194;18.948;2024-02-21T10:12:54;102312.84;;;9.35;72.59
24013;BME280;12220;50.194;18.948;2024-02-21T10:15:05;102303.64;;;9.37;72.37
24013;BME280;12220;50.194;18.948;2024-02-21T10:17:14;102303.51;;;9.40;72.35
24013;BME280;12220;50.194;18.948;2024-02-21T10:19:19;102298.03;;;9.40;71.66
24013;BME280;12220;50.194;18.948;2024-02-21T10:21:25;102302.55;;;9.41;71.74
24013;BME280;12220;50.194;18.948;2024-02-21T10:23:27;102288.89;;;9.41;72.02
24013;BME280;12220;50.194;18.948;2024-02-21T10:25:28;102294.23;;;9.45;72.21
24013;BME280;12220;50.194;18.948;2024-02-21T10:27:31;102286.03;;;9.45;71.66
24013;BME280;12220;50.194;18.948;2024-02-21T10:29:41;102295.84;;;9.50;72.02
24013;BME280;12220;50.194;18.948;2024-02-21T10:31:42;102285.68;;;9.54;72.25
24013;BME280;12220;50.194;18.948;2024-02-21T10:33:43;102285.41;;;9.60;72.35
24013;BME280;12220;50.194;18.948;2024-02-21T10:35:45;102291.49;;;9.67;72.43
24013;BME280;12220;50.194;18.948;2024-02-21T10:37:56;102285.79;;;9.73;72.48
24013;BME280;12220;50.194;18.948;2024-02-21T10:39:58;102281.95;;;9.77;71.71
24013;BME280;12220;50.194;18.948;2024-02-21T10:42:00;102276.31;;;9.82;71.14
24013;BME280;12220;50.194;18.948;2024-02-21T10:44:05;102265.16;;;9.86;71.21
24013;BME280;12220;50.194;18.948;2024-02-21T10:46:10;102264.15;;;9.89;70.99
24013;BME280;12220;50.194;18.948;2024-02-21T10:48:14;102263.95;;;9.93;70.19
24013;BME280;12220;50.194;18.948;2024-02-21T10:50:17;102260.30;;;9.93;68.03